sensor_id;sensor_type;location;lat;lon;timestamp;pressure;altitude;pressure_sealevel;temperature;humidity
67501;BME280;54349;52.528;19.760;2024-02-15T00:00:39;100865.59;;;25.76;34.08
67501;BME280;54349;52.528;19.760;2024-02-15T00:03:28;100865.91;;;25.78;33.99
67501;BME280;54349;52.528;19.760;2024-02-15T00:05:58;100870.45;;;25.78;34.01
67501;BME280;54349;52.528;19.760;2024-02-15T00:08:31;100876.16;;;25.80;34.06
67501;BME280;54349;52.528;19.760;2024-02-15T00:11:01;100879.10;;;25.81;33.94
67501;BME280;54349;52.528;19.760;2024-02-15T00:13:30;100882.60;;;25.82;33.78
67501;BME280;54349;52.528;19.760;2024-02-15T00:16:01;100879.08;;;25.83;33.77
67501;BME280;54349;52.528;19.760;2024-02-15T00:18:32;100878.00;;;25.84;33.89
67501;BME280;54349;52.528;19.760;2024-02-15T00:21:00;100872.88;;;25.85;33.71
67501;BME280;54349;52.528;19.760;2024-02-15T00:23:30;100867.23;;;25.85;33.78
67501;BME280;54349;52.528;19.760;2024-02-15T00:26:00;100861.57;;;25.88;33.75
67501;BME280;54349;52.528;19.760;2024-02-15T00:28:29;100862.31;;;25.88;34.00
67501;BME280;54349;52.528;19.760;2024-02-15T00:30:57;100869.54;;;25.90;34.05
67501;BME280;54349;52.528;19.760;2024-02-15T00:33:28;100871.88;;;25.94;33.89
67501;BME280;54349;52.528;19.760;2024-02-15T00:35:57;100869.79;;;25.95;33.94
67501;BME280;54349;52.528;19.760;2024-02-15T00:38:27;100875.34;;;25.96;33.84
67501;BME280;54349;52.528;19.760;2024-02-15T00:40:55;100874.88;;;25.97;33.70
67501;BME280;54349;52.528;19.760;2024-02-15T00:43:28;100875.51;;;25.98;33.56
67501;BME280;54349;52.528;19.760;2024-02-15T00:45:57;100876.32;;;26.00;33.56
67501;BME280;54349;52.528;19.760;2024-02-15T00:48:26;100878.83;;;26.01;33.40
67501;BME280;54349;52.528;19.760;2024-02-15T00:50:56;100873.94;;;26.02;33.56
67501;BME280;54349;52.528;19.760;2024-02-15T00:53:46;100873.20;;;26.03;33.52
67501;BME280;54349;52.528;19.760;2024-02-15T00:56:15;100874.43;;;26.02;33.66
67501;BME280;54349;52.528;19.760;2024-02-15T00:58:43;100871.46;;;26.00;33.50
67501;BME280;54349;52.528;19.760;2024-02-15T01:01:13;100870.75;;;25.97;33.35
67501;BME280;54349;52.528;19.760;2024-02-15T01:03:41;100868.75;;;25.94;33.43
67501;BME280;54349;52.528;19.760;2024-02-15T01:06:27;100867.20;;;25.91;33.27
67501;BME280;54349;52.528;19.760;2024-02-15T01:09:00;100866.39;;;25.87;33.40
67501;BME280;54349;52.528;19.760;2024-02-15T01:11:33;100864.71;;;25.84;33.25
67501;BME280;54349;52.528;19.760;2024-02-15T01:14:03;100863.19;;;25.80;33.37
67501;BME280;54349;52.528;19.760;2024-02-15T01:16:33;100862.03;;;25.77;33.34
67501;BME280;54349;52.528;19.760;2024-02-15T01:19:04;100859.14;;;25.74;33.44
67501;BME280;54349;52.528;19.760;2024-02-15T01:21:36;100865.48;;;25.71;33.39
67501;BME280;54349;52.528;19.760;2024-02-15T01:24:05;100864.88;;;25.67;33.52
67501;BME280;54349;52.528;19.760;2024-02-15T01:26:36;100866.21;;;25.64;33.29
67501;BME280;54349;52.528;19.760;2024-02-15T01:29:04;100871.09;;;25.62;33.28
67501;BME280;54349;52.528;19.760;2024-02-15T01:31:35;100865.02;;;25.60;33.31
67501;BME280;54349;52.528;19.760;2024-02-15T01:34:05;100861.44;;;25.58;33.31
67501;BME280;54349;52.528;19.760;2024-02-15T01:36:35;100863.21;;;25.55;33.29
67501;BME280;54349;52.528;19.760;2024-02-15T01:39:03;100858.63;;;25.53;33.25
67501;BME280;54349;52.528;19.760;2024-02-15T01:41:33;100860.40;;;25.51;33.46
67501;BME280;54349;52.528;19.760;2024-02-15T01:44:02;100856.64;;;25.49;33.46
67501;BME280;54349;52.528;19.760;2024-02-15T01:46:33;100855.65;;;25.46;33.29
67501;BME280;54349;52.528;19.760;2024-02-15T01:49:01;100855.87;;;25.43;33.22
67501;BME280;54349;52.528;19.760;2024-02-15T01:51:31;100858.48;;;25.39;33.11
67501;BME280;54349;52.528;19.760;2024-02-15T01:54:01;100852.61;;;25.35;33.10
67501;BME280;54349;52.528;19.760;2024-02-15T01:56:31;100852.39;;;25.31;32.96
67501;BME280;54349;52.528;19.760;2024-02-15T01:58:59;100852.69;;;25.27;33.02
67501;BME280;54349;52.528;19.760;2024-02-15T02:01:31;100852.86;;;25.23;33.03
67501;BME280;54349;52.528;19.760;2024-02-15T02:04:00;100847.33;;;25.19;33.04
67501;BME280;54349;52.528;19.760;2024-02-15T02:06:31;100848.22;;;25.15;33.07
67501;BME280;54349;52.528;19.760;2024-02-15T02:08:59;100845.81;;;25.10;33.03
67501;BME280;54349;52.528;19.760;2024-02-15T02:11:30;100845.10;;;25.06;33.10
67501;BME280;54349;52.528;19.760;2024-02-15T02:13:58;100842.18;;;25.01;33.02
67501;BME280;54349;52.528;19.760;2024-02-15T02:16:29;100841.31;;;24.97;33.01
67501;BME280;54349;52.528;19.760;2024-02-15T02:18:58;100832.77;;;24.93;33.22
67501;BME280;54349;52.528;19.760;2024-02-15T02:21:29;100829.23;;;24.88;33.03
67501;BME280;54349;52.528;19.760;2024-02-15T02:23:57;100830.23;;;24.84;33.27
67501;BME280;54349;52.528;19.760;2024-02-15T02:26:27;100833.95;;;24.81;33.17
67501;BME280;54349;52.528;19.760;2024-02-15T02:28:55;100837.15;;;24.78;33.22
67501;BME280;54349;52.528;19.760;2024-02-15T02:31:26;100834.09;;;24.75;33.11
67501;BME280;54349;52.528;19.760;2024-02-15T02:33:54;100831.36;;;24.72;33.30
67501;BME280;54349;52.528;19.760;2024-02-15T02:36:25;100833.52;;;24.68;33.20
67501;BME280;54349;52.528;19.760;2024-02-15T02:38:55;100830.97;;;24.64;33.08
67501;BME280;54349;52.528;19.760;2024-02-15T02:41:29;100832.14;;;24.60;33.25
67501;BME280;54349;52.528;19.760;2024-02-15T02:43:58;100830.42;;;24.55;33.38
67501;BME280;54349;52.528;19.760;2024-02-15T02:46:28;100833.85;;;24.52;33.35
67501;BME280;54349;52.528;19.760;2024-02-15T02:48:56;100833.31;;;24.48;33.40
67501;BME280;54349;52.528;19.760;2024-02-15T02:51:25;100829.30;;;24.44;33.43
67501;BME280;54349;52.528;19.760;2024-02-15T02:53:53;100834.27;;;24.40;33.40
67501;BME280;54349;52.528;19.760;2024-02-15T02:56:21;100833.20;;;24.36;33.35
67501;BME280;54349;52.528;19.760;2024-02-15T02:58:50;100832.98;;;24.32;33.57
67501;BME280;54349;52.528;19.760;2024-02-15T03:01:22;100837.18;;;24.29;33.62
67501;BME280;54349;52.528;19.760;2024-02-15T03:03:53;100836.39;;;24.22;33.73
67501;BME280;54349;52.528;19.760;2024-02-15T03:06:23;100839.03;;;24.18;33.79
67501;BME280;54349;52.528;19.760;2024-02-15T03:08:54;100844.73;;;24.16;33.71
67501;BME280;54349;52.528;19.760;2024-02-15T03:11:22;100843.42;;;24.13;33.78
67501;BME280;54349;52.528;19.760;2024-02-15T03:13:51;100841.13;;;24.11;33.69
67501;BME280;54349;52.528;19.760;2024-02-15T03:16:23;100846.75;;;24.08;33.99
67501;BME280;54349;52.528;19.760;2024-02-15T03:18:54;100849.41;;;24.05;33.95
67501;BME280;54349;52.528;19.760;2024-02-15T03:21:23;100845.44;;;24.02;33.91
67501;BME280;54349;52.528;19.760;2024-02-15T03:23:52;100850.19;;;23.99;34.01
67501;BME280;54349;52.528;19.760;2024-02-15T03:26:39;100853.80;;;23.97;34.02
67501;BME280;54349;52.528;19.760;2024-02-15T03:29:12;100851.65;;;23.91;34.16
67501;BME280;54349;52.528;19.760;2024-02-15T03:31:40;100853.08;;;23.89;34.14
67501;BME280;54349;52.528;19.760;2024-02-15T03:34:09;100849.45;;;23.84;34.34
67501;BME280;54349;52.528;19.760;2024-02-15T03:36:39;100850.21;;;23.81;34.15
67501;BME280;54349;52.528;19.760;2024-02-15T03:39:08;100851.19;;;23.78;34.26
67501;BME280;54349;52.528;19.760;2024-02-15T03:41:37;100847.88;;;23.75;34.28
67501;BME280;54349;52.528;19.760;2024-02-15T03:44:07;100847.96;;;23.73;34.53
67501;BME280;54349;52.528;19.760;2024-02-15T03:46:37;100848.39;;;23.70;34.50
67501;BME280;54349;52.528;19.760;2024-02-15T03:49:07;100849.16;;;23.66;34.65
67501;BME280;54349;52.528;19.760;2024-02-15T03:51:35;100846.98;;;23.64;34.74
67501;BME280;54349;52.528;19.760;2024-02-15T03:54:06;100845.60;;;23.62;34.70
67501;BME280;54349;52.528;19.760;2024-02-15T03:56:34;100846.23;;;23.60;34.72
67501;BME280;54349;52.528;19.760;2024-02-15T03:59:04;100844.12;;;23.56;34.74
67501;BME280;54349;52.528;19.760;2024-02-15T04:01:33;100844.70;;;23.52;34.68
67501;BME280;54349;52.528;19.760;2024-02-15T04:04:03;100843.08;;;23.48;34.53
67501;BME280;54349;52.528;19.760;2024-02-15T04:06:33;100845.45;;;23.43;34.47
67501;BME280;54349;52.528;19.760;2024-02-15T04:09:03;100837.58;;;23.39;34.40
67501;BME280;54349;52.528;19.760;2024-02-15T04:11:31;100840.71;;;23.35;34.40
67501;BME280;54349;52.528;19.760;2024-02-15T04:14:03;100836.60;;;23.31;34.53
67501;BME280;54349;52.528;19.760;2024-02-15T04:16:31;100839.33;;;23.27;34.28
67501;BME280;54349;52.528;19.760;2024-02-15T04:19:07;100836.90;;;23.21;34.35
67501;BME280;54349;52.528;19.760;2024-02-15T04:21:35;100838.65;;;23.17;34.25
67501;BME280;54349;52.528;19.760;2024-02-15T04:24:06;100832.97;;;23.14;34.30
67501;BME280;54349;52.528;19.760;2024-02-15T04:26:34;100839.86;;;23.11;34.35
67501;BME280;54349;52.528;19.760;2024-02-15T04:29:06;100841.27;;;23.07;34.37
67501;BME280;54349;52.528;19.760;2024-02-15T04:31:38;100835.41;;;23.05;34.29
67501;BME280;54349;52.528;19.760;2024-02-15T04:34:09;100840.59;;;23.01;34.45
67501;BME280;54349;52.528;19.760;2024-02-15T04:36:38;100837.66;;;23.00;34.51
67501;BME280;54349;52.528;19.760;2024-02-15T04:39:10;100838.61;;;22.99;34.55
67501;BME280;54349;52.528;19.760;2024-02-15T04:41:42;100837.14;;;22.97;34.58
67501;BME280;54349;52.528;19.760;2024-02-15T04:44:11;100836.59;;;22.95;34.68
67501;BME280;54349;52.528;19.760;2024-02-15T04:46:41;100839.64;;;22.93;34.63
67501;BME280;54349;52.528;19.760;2024-02-15T04:49:16;100841.79;;;22.92;34.67
67501;BME280;54349;52.528;19.760;2024-02-15T04:51:50;100841.39;;;22.92;34.69
67501;BME280;54349;52.528;19.760;2024-02-15T04:54:19;100837.63;;;22.92;34.83
67501;BME280;54349;52.528;19.760;2024-02-15T04:56:49;100841.45;;;22.95;34.85
67501;BME280;54349;52.528;19.760;2024-02-15T04:59:25;100842.67;;;22.96;34.75
67501;BME280;54349;52.528;19.760;2024-02-15T05:01:55;100843.38;;;22.97;34.92
67501;BME280;54349;52.528;19.760;2024-02-15T05:04:28;100846.86;;;22.98;34.97
67501;BME280;54349;52.528;19.760;2024-02-15T05:06:57;100849.67;;;23.00;34.91
67501;BME280;54349;52.528;19.760;2024-02-15T05:09:27;100848.95;;;23.02;34.93
67501;BME280;54349;52.528;19.760;2024-02-15T05:11:55;100849.66;;;23.03;34.90
67501;BME280;54349;52.528;19.760;2024-02-15T05:14:26;100847.22;;;23.03;34.86
67501;BME280;54349;52.528;19.760;2024-02-15T05:16:54;100849.05;;;23.03;34.78
67501;BME280;54349;52.528;19.760;2024-02-15T05:19:24;100852.04;;;23.03;34.88
67501;BME280;54349;52.528;19.760;2024-02-15T05:21:52;100851.36;;;23.05;35.04
67501;BME280;54349;52.528;19.760;2024-02-15T05:24:23;100848.41;;;23.07;34.95
67501;BME280;54349;52.528;19.760;2024-02-15T05:26:52;100849.11;;;23.09;35.14
67501;BME280;54349;52.528;19.760;2024-02-15T05:29:21;100846.89;;;23.10;35.05
67501;BME280;54349;52.528;19.760;2024-02-15T05:31:51;100846.98;;;23.13;34.98
67501;BME280;54349;52.528;19.760;2024-02-15T05:34:23;100844.98;;;23.13;34.97
67501;BME280;54349;52.528;19.760;2024-02-15T05:36:54;100848.08;;;23.15;35.02
67501;BME280;54349;52.528;19.760;2024-02-15T05:39:24;100853.01;;;23.13;35.09
67501;BME280;54349;52.528;19.760;2024-02-15T05:41:53;100855.60;;;23.16;35.28
67501;BME280;54349;52.528;19.760;2024-02-15T05:44:22;100856.58;;;23.19;35.26
67501;BME280;54349;52.528;19.760;2024-02-15T05:46:50;100855.52;;;23.20;35.36
67501;BME280;54349;52.528;19.760;2024-02-15T05:49:18;100850.07;;;23.22;35.33
67501;BME280;54349;52.528;19.760;2024-02-15T05:51:49;100853.73;;;23.22;35.18
67501;BME280;54349;52.528;19.760;2024-02-15T05:54:17;100856.48;;;23.22;35.36
67501;BME280;54349;52.528;19.760;2024-02-15T05:56:48;100857.86;;;23.22;35.29
67501;BME280;54349;52.528;19.760;2024-02-15T05:59:21;100860.35;;;23.23;35.32
67501;BME280;54349;52.528;19.760;2024-02-15T06:01:50;100863.56;;;23.23;35.37
67501;BME280;54349;52.528;19.760;2024-02-15T06:04:19;100860.39;;;23.25;35.38
67501;BME280;54349;52.528;19.760;2024-02-15T06:06:48;100864.27;;;23.25;35.40
67501;BME280;54349;52.528;19.760;2024-02-15T06:09:19;100865.11;;;23.25;35.40
67501;BME280;54349;52.528;19.760;2024-02-15T06:11:51;100865.43;;;23.25;35.44
67501;BME280;54349;52.528;19.760;2024-02-15T06:14:23;100863.60;;;23.25;35.54
67501;BME280;54349;52.528;19.760;2024-02-15T06:16:53;100865.32;;;23.25;35.56
67501;BME280;54349;52.528;19.760;2024-02-15T06:19:24;100870.30;;;23.26;35.55
67501;BME280;54349;52.528;19.760;2024-02-15T06:21:54;100869.80;;;23.27;35.64
67501;BME280;54349;52.528;19.760;2024-02-15T06:24:22;100873.27;;;23.28;35.86
67501;BME280;54349;52.528;19.760;2024-02-15T06:26:53;100876.21;;;23.28;35.68
67501;BME280;54349;52.528;19.760;2024-02-15T06:29:29;100886.63;;;23.27;35.57
67501;BME280;54349;52.528;19.760;2024-02-15T06:32:18;100889.02;;;23.26;35.93
67501;BME280;54349;52.528;19.760;2024-02-15T06:35:07;100886.44;;;23.31;36.54
67501;BME280;54349;52.528;19.760;2024-02-15T06:37:54;100889.40;;;23.34;36.63
67501;BME280;54349;52.528;19.760;2024-02-15T06:40:43;100893.66;;;23.34;36.53
67501;BME280;54349;52.528;19.760;2024-02-15T06:43:11;100892.23;;;23.34;36.42
67501;BME280;54349;52.528;19.760;2024-02-15T06:45:40;100893.45;;;23.33;36.23
67501;BME280;54349;52.528;19.760;2024-02-15T06:48:13;100891.58;;;23.32;36.13
67501;BME280;54349;52.528;19.760;2024-02-15T06:50:42;100892.65;;;23.30;36.10
67501;BME280;54349;52.528;19.760;2024-02-15T06:53:11;100893.77;;;23.29;36.18
67501;BME280;54349;52.528;19.760;2024-02-15T06:55:41;100897.64;;;23.29;36.06
67501;BME280;54349;52.528;19.760;2024-02-15T06:58:10;100899.46;;;23.28;35.93
67501;BME280;54349;52.528;19.760;2024-02-15T07:00:45;100895.00;;;23.26;35.79
67501;BME280;54349;52.528;19.760;2024-02-15T07:03:13;100896.02;;;23.25;35.83
67501;BME280;54349;52.528;19.760;2024-02-15T07:05:44;100897.18;;;23.23;35.78
67501;BME280;54349;52.528;19.760;2024-02-15T07:08:12;100898.13;;;23.22;35.80
67501;BME280;54349;52.528;19.760;2024-02-15T07:10:43;100902.12;;;23.22;35.81
67501;BME280;54349;52.528;19.760;2024-02-15T07:13:11;100897.77;;;23.20;35.84
67501;BME280;54349;52.528;19.760;2024-02-15T07:15:41;100898.60;;;23.20;35.84
67501;BME280;54349;52.528;19.760;2024-02-15T07:18:10;100898.87;;;23.18;35.87
67501;BME280;54349;52.528;19.760;2024-02-15T07:20:45;100896.92;;;23.14;35.81
67501;BME280;54349;52.528;19.760;2024-02-15T07:23:14;100900.20;;;23.14;35.72
67501;BME280;54349;52.528;19.760;2024-02-15T07:25:43;100905.02;;;23.12;35.72
67501;BME280;54349;52.528;19.760;2024-02-15T07:28:11;100906.56;;;23.12;35.82
67501;BME280;54349;52.528;19.760;2024-02-15T07:30:39;100912.01;;;23.12;35.81
67501;BME280;54349;52.528;19.760;2024-02-15T07:33:08;100911.95;;;23.11;35.81
67501;BME280;54349;52.528;19.760;2024-02-15T07:35:37;100914.66;;;23.11;35.87
67501;BME280;54349;52.528;19.760;2024-02-15T07:38:06;100908.02;;;23.11;35.86
67501;BME280;54349;52.528;19.760;2024-02-15T07:40:35;100907.13;;;23.11;35.84
67501;BME280;54349;52.528;19.760;2024-02-15T07:43:05;100907.14;;;23.10;35.84
67501;BME280;54349;52.528;19.760;2024-02-15T07:45:34;100910.19;;;23.10;35.92
67501;BME280;54349;52.528;19.760;2024-02-15T07:48:05;100905.86;;;23.09;35.97
67501;BME280;54349;52.528;19.760;2024-02-15T07:50:34;100903.05;;;23.09;36.06
67501;BME280;54349;52.528;19.760;2024-02-15T07:53:06;100900.33;;;23.10;36.62
67501;BME280;54349;52.528;19.760;2024-02-15T07:55:36;100901.55;;;23.09;37.06
67501;BME280;54349;52.528;19.760;2024-02-15T07:58:07;100894.35;;;23.11;37.28
67501;BME280;54349;52.528;19.760;2024-02-15T08:00:36;100891.95;;;23.12;37.33
67501;BME280;54349;52.528;19.760;2024-02-15T08:03:09;100894.88;;;23.13;37.61
67501;BME280;54349;52.528;19.760;2024-02-15T08:05:39;100896.47;;;23.16;37.85
67501;BME280;54349;52.528;19.760;2024-02-15T08:08:08;100895.16;;;23.19;38.05
67501;BME280;54349;52.528;19.760;2024-02-15T08:10:38;100895.63;;;23.24;38.08
67501;BME280;54349;52.528;19.760;2024-02-15T08:13:10;100895.54;;;23.28;38.05
67501;BME280;54349;52.528;19.760;2024-02-15T08:15:59;100896.96;;;23.31;38.01
67501;BME280;54349;52.528;19.760;2024-02-15T08:18:36;100900.95;;;23.37;38.08
67501;BME280;54349;52.528;19.760;2024-02-15T08:21:09;100899.48;;;23.41;38.01
67501;BME280;54349;52.528;19.760;2024-02-15T08:23:41;100901.05;;;23.47;38.03
67501;BME280;54349;52.528;19.760;2024-02-15T08:26:10;100902.55;;;23.53;38.11
67501;BME280;54349;52.528;19.760;2024-02-15T08:28:43;100907.05;;;23.58;38.10
67501;BME280;54349;52.528;19.760;2024-02-15T08:31:11;100908.38;;;23.64;38.03
67501;BME280;54349;52.528;19.760;2024-02-15T08:33:44;100909.46;;;23.69;37.83
67501;BME280;54349;52.528;19.760;2024-02-15T08:36:14;100908.87;;;23.73;37.69
67501;BME280;54349;52.528;19.760;2024-02-15T08:38:44;100916.30;;;23.74;37.65
67501;BME280;54349;52.528;19.760;2024-02-15T08:41:15;100917.15;;;23.77;37.64
67501;BME280;54349;52.528;19.760;2024-02-15T08:43:50;100920.68;;;23.80;37.59
67501;BME280;54349;52.528;19.760;2024-02-15T08:46:25;100917.05;;;23.83;37.81
67501;BME280;54349;52.528;19.760;2024-02-15T08:49:02;100912.77;;;23.86;37.63
67501;BME280;54349;52.528;19.760;2024-02-15T08:51:33;100910.90;;;23.89;37.75
67501;BME280;54349;52.528;19.760;2024-02-15T08:54:01;100910.87;;;23.92;37.43
67501;BME280;54349;52.528;19.760;2024-02-15T08:56:31;100916.75;;;23.95;37.27
67501;BME280;54349;52.528;19.760;2024-02-15T08:59:01;100915.46;;;23.97;37.35
67501;BME280;54349;52.528;19.760;2024-02-15T09:01:33;100918.16;;;23.99;37.28
67501;BME280;54349;52.528;19.760;2024-02-15T09:04:01;100921.41;;;24.01;37.49
67501;BME280;54349;52.528;19.760;2024-02-15T09:06:31;100921.25;;;24.01;37.35
67501;BME280;54349;52.528;19.760;2024-02-15T09:09:00;100926.05;;;24.03;37.38
67501;BME280;54349;52.528;19.760;2024-02-15T09:11:29;100927.33;;;24.03;37.52
67501;BME280;54349;52.528;19.760;2024-02-15T09:13:58;100925.21;;;24.04;37.43
67501;BME280;54349;52.528;19.760;2024-02-15T09:16:28;100928.60;;;24.04;37.33
67501;BME280;54349;52.528;19.760;2024-02-15T09:18:57;100930.83;;;24.03;37.22
67501;BME280;54349;52.528;19.760;2024-02-15T09:21:30;100932.60;;;24.02;37.33
67501;BME280;54349;52.528;19.760;2024-02-15T09:23:58;100938.34;;;23.99;37.38
67501;BME280;54349;52.528;19.760;2024-02-15T09:26:26;100938.02;;;23.99;37.46
67501;BME280;54349;52.528;19.760;2024-02-15T09:28:56;100937.95;;;23.99;37.57
67501;BME280;54349;52.528;19.760;2024-02-15T09:31:24;100939.08;;;23.99;37.63
67501;BME280;54349;52.528;19.760;2024-02-15T09:33:55;100940.23;;;23.99;37.57
67501;BME280;54349;52.528;19.760;2024-02-15T09:36:23;100938.52;;;23.98;37.33
67501;BME280;54349;52.528;19.760;2024-02-15T09:38:53;100934.10;;;23.96;37.33
67501;BME280;54349;52.528;19.760;2024-02-15T09:41:22;100936.48;;;23.96;37.40
67501;BME280;54349;52.528;19.760;2024-02-15T09:43:51;100932.50;;;23.95;37.57
67501;BME280;54349;52.528;19.760;2024-02-15T09:46:20;100933.55;;;23.96;37.50
67501;BME280;54349;52.528;19.760;2024-02-15T09:48:51;100929.61;;;23.96;37.67
67501;BME280;54349;52.528;19.760;2024-02-15T09:51:29;100929.25;;;23.97;37.69
67501;BME280;54349;52.528;19.760;2024-02-15T09:54:00;100927.15;;;23.99;37.54
67501;BME280;54349;52.528;19.760;2024-02-15T09:56:31;100922.77;;;24.00;37.56
67501;BME280;54349;52.528;19.760;2024-02-15T09:59:01;100922.64;;;24.00;37.45
67501;BME280;54349;52.528;19.760;2024-02-15T10:01:31;100922.24;;;24.01;37.61
67501;BME280;54349;52.528;19.760;2024-02-15T10:04:04;100921.30;;;24.01;37.62
67501;BME280;54349;52.528;19.760;2024-02-15T10:06:35;100920.14;;;24.01;37.73
67501;BME280;54349;52.528;19.760;2024-02-15T10:09:23;100919.17;;;24.03;37.76
67501;BME280;54349;52.528;19.760;2024-02-15T10:12:01;100917.06;;;24.03;37.72
67501;BME280;54349;52.528;19.760;2024-02-15T10:14:30;100919.05;;;24.04;37.59
67501;BME280;54349;52.528;19.760;2024-02-15T10:17:08;100919.49;;;24.05;37.59
67501;BME280;54349;52.528;19.760;2024-02-15T10:19:42;100924.36;;;24.05;37.48
67501;BME280;54349;52.528;19.760;2024-02-15T10:22:12;100920.02;;;24.06;37.53
67501;BME280;54349;52.528;19.760;2024-02-15T10:24:43;100916.30;;;24.07;37.58
67501;BME280;54349;52.528;19.760;2024-02-15T10:27:11;100915.35;;;24.08;37.73
67501;BME280;54349;52.528;19.760;2024-02-15T10:29:39;100915.89;;;24.09;37.56
67501;BME280;54349;52.528;19.760;2024-02-15T10:32:09;100920.00;;;24.10;37.62
67501;BME280;54349;52.528;19.760;2024-02-15T10:34:44;100921.58;;;24.11;37.53
67501;BME280;54349;52.528;19.760;2024-02-15T10:37:15;100912.75;;;24.12;37.67
67501;BME280;54349;52.528;19.760;2024-02-15T10:39:44;100911.82;;;24.12;37.59
67501;BME280;54349;52.528;19.760;2024-02-15T10:42:15;100912.64;;;24.12;37.63
67501;BME280;54349;52.528;19.760;2024-02-15T10:44:46;100905.27;;;24.13;37.57
67501;BME280;54349;52.528;19.760;2024-02-15T10:47:16;100906.91;;;24.14;37.78
67501;BME280;54349;52.528;19.760;2024-02-15T10:49:47;100904.45;;;24.17;37.69
67501;BME280;54349;52.528;19.760;2024-02-15T10:52:19;100903.48;;;24.18;37.65
67501;BME280;54349;52.528;19.760;2024-02-15T10:54:52;100903.40;;;24.20;37.63
67501;BME280;54349;52.528;19.760;2024-02-15T10:57:26;100901.62;;;24.22;37.42
67501;BME280;54349;52.528;19.760;2024-02-15T10:59:58;100903.14;;;24.24;37.37
67501;BME280;54349;52.528;19.760;2024-02-15T11:02:45;100899.58;;;24.25;37.38
67501;BME280;54349;52.528;19.760;2024-02-15T11:05:19;100902.34;;;24.26;37.35
67501;BME280;54349;52.528;19.760;2024-02-15T11:07:51;100899.91;;;24.26;37.46
67501;BME280;54349;52.528;19.760;2024-02-15T11:10:25;100895.18;;;24.26;37.53
67501;BME280;54349;52.528;19.760;2024-02-15T11:12:53;100896.77;;;24.28;37.49
67501;BME280;54349;52.528;19.760;2024-02-15T11:15:42;100896.59;;;24.29;37.45
67501;BME280;54349;52.528;19.760;2024-02-15T11:21:03;100898.25;;;24.25;37.54
67501;BME280;54349;52.528;19.760;2024-02-15T11:23:33;100895.92;;;24.25;37.53
67501;BME280;54349;52.528;19.760;2024-02-15T11:26:44;100893.63;;;24.26;37.46
67501;BME280;54349;52.528;19.760;2024-02-15T11:32:42;100892.86;;;24.26;37.62
67501;BME280;54349;52.528;19.760;2024-02-15T11:35:18;100894.17;;;24.27;37.51
67501;BME280;54349;52.528;19.760;2024-02-15T11:37:59;100890.53;;;24.26;37.53
67501;BME280;54349;52.528;19.760;2024-02-15T11:46:16;100882.65;;;24.25;37.54
67501;BME280;54349;52.528;19.760;2024-02-15T11:48:48;100880.31;;;24.26;37.62
67501;BME280;54349;52.528;19.760;2024-02-15T11:51:30;100873.71;;;24.27;37.57
67501;BME280;54349;52.528;19.760;2024-02-15T11:59:18;100868.93;;;24.27;37.52
67501;BME280;54349;52.528;19.760;2024-02-15T12:01:59;100862.92;;;24.29;37.55
67501;BME280;54349;52.528;19.760;2024-02-15T12:04:46;100867.75;;;24.29;37.63
67501;BME280;54349;52.528;19.760;2024-02-15T12:07:35;100865.23;;;24.30;37.70
67501;BME280;54349;52.528;19.760;2024-02-15T12:10:23;100863.55;;;24.31;37.54
67501;BME280;54349;52.528;19.760;2024-02-15T12:13:17;100861.38;;;24.32;37.52
67501;BME280;54349;52.528;19.760;2024-02-15T12:16:06;100859.98;;;24.33;37.66
67501;BME280;54349;52.528;19.760;2024-02-15T12:18:54;100856.70;;;24.34;37.53
67501;BME280;54349;52.528;19.760;2024-02-15T12:21:27;100855.48;;;24.35;37.65
67501;BME280;54349;52.528;19.760;2024-02-15T12:23:56;100856.55;;;24.37;37.60
67501;BME280;54349;52.528;19.760;2024-02-15T12:26:24;100858.15;;;24.38;37.61
67501;BME280;54349;52.528;19.760;2024-02-15T12:28:57;100858.97;;;24.39;37.70
67501;BME280;54349;52.528;19.760;2024-02-15T12:31:26;100860.95;;;24.40;37.71
67501;BME280;54349;52.528;19.760;2024-02-15T12:34:05;100860.89;;;24.41;37.66
67501;BME280;54349;52.528;19.760;2024-02-15T12:36:37;100857.39;;;24.42;37.52
67501;BME280;54349;52.528;19.760;2024-02-15T12:39:07;100855.50;;;24.44;37.31
67501;BME280;54349;52.528;19.760;2024-02-15T12:41:47;100857.45;;;24.43;37.43
67501;BME280;54349;52.528;19.760;2024-02-15T12:44:19;100854.84;;;24.41;37.37
67501;BME280;54349;52.528;19.760;2024-02-15T12:46:57;100853.59;;;24.39;37.27
67501;BME280;54349;52.528;19.760;2024-02-15T12:49:30;100851.56;;;24.37;37.44
67501;BME280;54349;52.528;19.760;2024-02-15T12:52:52;100850.87;;;24.35;37.32
67501;BME280;54349;52.528;19.760;2024-02-15T12:55:15;100854.00;;;24.33;37.37
67501;BME280;54349;52.528;19.760;2024-02-15T12:57:49;100853.25;;;24.31;37.27
67501;BME280;54349;52.528;19.760;2024-02-15T13:00:22;100850.77;;;24.29;37.17
67501;BME280;54349;52.528;19.760;2024-02-15T13:02:52;100844.88;;;24.26;37.36
67501;BME280;54349;52.528;19.760;2024-02-15T13:05:25;100850.99;;;24.25;37.26
67501;BME280;54349;52.528;19.760;2024-02-15T13:07:55;100850.41;;;24.23;37.44
67501;BME280;54349;52.528;19.760;2024-02-15T13:10:40;100854.41;;;24.21;37.40
67501;BME280;54349;52.528;19.760;2024-02-15T13:13:13;100857.61;;;24.19;37.52
67501;BME280;54349;52.528;19.760;2024-02-15T13:15:46;100852.85;;;24.18;37.52
67501;BME280;54349;52.528;19.760;2024-02-15T13:18:22;100849.27;;;24.16;37.43
67501;BME280;54349;52.528;19.760;2024-02-15T13:20:52;100854.13;;;24.13;37.42